createdAt,value
2022-11-04T00:01:50.583Z,12.70
2022-11-04T00:05:51.722Z,12.60
2022-11-04T00:09:52.794Z,12.50
2022-11-04T00:13:53.905Z,12.70
2022-11-04T00:17:55.051Z,12.80
2022-11-04T00:22:14.854Z,12.90
2022-11-04T00:26:34.515Z,12.80
2022-11-04T00:30:35.717Z,12.80
2022-11-04T00:34:37.086Z,12.80
2022-11-04T00:38:38.267Z,12.60
2022-11-04T00:42:39.500Z,12.60
2022-11-04T00:46:40.733Z,12.80
2022-11-04T00:50:42.112Z,12.70
2022-11-04T00:54:43.400Z,12.90
2022-11-04T00:58:44.490Z,13.00
2022-11-04T01:02:46.344Z,12.90
2022-11-04T01:06:48.074Z,12.90
2022-11-04T01:10:49.258Z,12.90
2022-11-04T01:14:50.725Z,12.90
2022-11-04T01:18:52.118Z,12.90
2022-11-04T01:22:53.293Z,12.80
2022-11-04T01:26:54.402Z,12.80
2022-11-04T01:30:55.658Z,12.90
2022-11-04T01:34:56.849Z,12.90
2022-11-04T01:38:57.943Z,13.10
2022-11-04T01:42:59.159Z,12.90
2022-11-04T01:47:00.784Z,12.80
2022-11-04T01:51:02.961Z,12.90
2022-11-04T01:55:08.072Z,12.90
2022-11-04T01:59:13.060Z,12.90
2022-11-04T02:03:24.238Z,13.00
2022-11-04T02:07:25.421Z,13.10
2022-11-04T02:11:45.129Z,13.00
2022-11-04T02:15:56.405Z,13.00
2022-11-04T02:20:18.431Z,13.10
2022-11-04T02:24:44.121Z,13.20
2022-11-04T02:29:12.786Z,12.90
2022-11-04T02:33:27.038Z,13.00
2022-11-04T02:37:49.032Z,13.00
2022-11-04T02:41:56.948Z,12.90
2022-11-04T02:46:17.006Z,12.80
2022-11-04T02:50:38.549Z,12.80
2022-11-04T02:54:43.524Z,12.90
2022-11-04T02:58:51.633Z,12.80
2022-11-04T03:02:56.547Z,12.70
2022-11-04T03:06:59.933Z,12.70
2022-11-04T03:11:09.401Z,12.60
2022-11-04T03:15:14.350Z,12.60
2022-11-04T03:19:25.546Z,12.40
2022-11-04T03:23:26.933Z,12.40
2022-11-04T03:27:34.362Z,12.30
2022-11-04T03:31:39.319Z,12.40
2022-11-04T03:35:40.750Z,12.30
2022-11-04T03:39:41.913Z,12.40
2022-11-04T03:43:43.139Z,12.20
2022-11-04T03:47:44.538Z,12.20
2022-11-04T03:51:45.774Z,12.10
2022-11-04T03:56:09.373Z,12.10
2022-11-04T04:00:13.854Z,12.10
2022-11-04T04:04:21.808Z,12.00
2022-11-04T04:08:29.788Z,12.10
2022-11-04T04:12:37.260Z,12.00
2022-11-04T04:16:44.957Z,12.10
2022-11-04T04:20:47.848Z,12.00
2022-11-04T04:25:10.300Z,12.20
2022-11-04T04:29:12.256Z,12.20
2022-11-04T04:33:16.945Z,11.90
2022-11-04T04:37:22.639Z,12.00
2022-11-04T04:41:48.738Z,12.10
2022-11-04T04:45:53.951Z,12.10
2022-11-04T04:49:58.331Z,12.10
2022-11-04T04:53:59.739Z,12.00
2022-11-04T04:58:01.559Z,12.00
2022-11-04T05:02:03.594Z,11.90
2022-11-04T05:06:06.186Z,11.80
2022-11-04T05:10:11.664Z,11.80
2022-11-04T05:14:13.850Z,11.90
2022-11-04T05:18:15.106Z,11.80
2022-11-04T05:22:16.287Z,12.00
2022-11-04T05:26:17.571Z,11.90
2022-11-04T05:30:20.301Z,11.90
2022-11-04T05:34:22.353Z,11.80
2022-11-04T05:38:24.262Z,11.80
2022-11-04T05:42:25.430Z,11.90
2022-11-04T05:46:27.744Z,11.90
2022-11-04T05:50:30.902Z,11.70
2022-11-04T05:54:32.092Z,11.70
2022-11-04T05:58:33.551Z,11.70
2022-11-04T06:02:34.759Z,11.90
2022-11-04T06:06:36.365Z,12.00
2022-11-04T06:10:37.597Z,12.00
2022-11-04T06:14:38.751Z,11.90
2022-11-04T06:18:39.856Z,11.80
2022-11-04T06:22:40.962Z,12.00
2022-11-04T06:26:42.069Z,12.10
2022-11-04T06:30:43.239Z,12.10
2022-11-04T06:34:45.777Z,12.10
2022-11-04T06:38:46.943Z,11.70
2022-11-04T06:42:49.922Z,11.90
2022-11-04T06:46:51.085Z,11.90
2022-11-04T06:50:52.547Z,12.00
2022-11-04T06:54:53.723Z,12.20
2022-11-04T06:58:56.132Z,12.10
2022-11-04T07:02:57.828Z,12.20
2022-11-04T07:06:58.992Z,12.20
2022-11-04T07:11:00.867Z,12.20
2022-11-04T07:15:02.196Z,12.20
2022-11-04T07:19:03.585Z,12.20
2022-11-04T07:23:04.888Z,12.30
2022-11-04T07:27:07.096Z,12.40
2022-11-04T07:31:10.532Z,12.60
2022-11-04T07:35:12.494Z,12.70
2022-11-04T07:39:13.571Z,12.70
2022-11-04T07:43:15.453Z,12.70
2022-11-04T07:47:16.569Z,12.70
2022-11-04T07:51:19.802Z,12.70
2022-11-04T07:55:21.379Z,12.70
2022-11-04T07:59:22.496Z,12.70
2022-11-04T08:03:23.653Z,12.60
2022-11-04T08:07:24.781Z,12.80
2022-11-04T08:11:27.661Z,12.90
2022-11-04T08:15:29.021Z,13.00
2022-11-04T08:19:30.715Z,13.20
2022-11-04T08:23:33.604Z,13.30
2022-11-04T08:27:34.711Z,13.20
2022-11-04T08:31:36.595Z,13.30
2022-11-04T08:35:41.039Z,13.50
2022-11-04T08:39:41.121Z,13.50
2022-11-04T08:43:42.689Z,13.50
2022-11-04T08:47:43.944Z,13.60
2022-11-04T08:51:48.183Z,13.60
2022-11-04T08:55:50.943Z,13.50
2022-11-04T08:59:53.156Z,13.70
2022-11-04T09:03:56.692Z,13.70
2022-11-04T09:07:58.016Z,13.80
2022-11-04T09:11:59.204Z,13.70
2022-11-04T09:16:01.110Z,13.80
2022-11-04T09:20:03.228Z,13.50
2022-11-04T09:24:05.493Z,13.70
2022-11-04T09:28:08.102Z,13.80
2022-11-04T09:32:10.459Z,13.80
2022-11-04T09:36:13.408Z,14.10
2022-11-04T09:40:17.518Z,13.90
2022-11-04T09:44:28.915Z,14.40
2022-11-04T09:48:43.605Z,14.70
2022-11-04T09:52:48.618Z,14.40
2022-11-04T09:56:52.558Z,14.00
2022-11-04T10:01:03.609Z,14.10
2022-11-04T10:05:11.838Z,14.10
2022-11-04T10:09:38.324Z,14.00
2022-11-04T10:13:55.930Z,14.40
2022-11-04T10:18:07.500Z,13.90
2022-11-04T10:22:27.148Z,14.10
2022-11-04T10:26:32.472Z,14.40
2022-11-04T10:30:34.901Z,14.80
2022-11-04T10:34:55.325Z,15.10
2022-11-04T10:38:58.655Z,14.70
2022-11-04T10:43:02.437Z,14.90
2022-11-04T10:47:07.893Z,15.10
2022-11-04T10:51:09.191Z,15.20
2022-11-04T10:55:20.080Z,15.10
2022-11-04T10:59:31.302Z,14.90
2022-11-04T11:03:34.521Z,15.20
2022-11-04T11:07:36.433Z,15.50
2022-11-04T11:11:46.845Z,15.70
2022-11-04T11:15:49.178Z,16.00
2022-11-04T11:19:57.598Z,16.40
2022-11-04T11:24:02.818Z,16.60
2022-11-04T11:28:12.601Z,16.50
2022-11-04T11:32:20.485Z,16.60
2022-11-04T11:36:25.579Z,16.90
2022-11-04T11:40:33.520Z,16.50
2022-11-04T11:44:46.319Z,15.80
2022-11-04T11:48:52.699Z,15.70
2022-11-04T11:52:57.613Z,15.60
2022-11-04T11:57:13.841Z,15.90
2022-11-04T12:01:30.450Z,15.70
2022-11-04T12:10:18.495Z,16.40
2022-11-04T12:14:37.636Z,16.40
2022-11-04T12:18:48.454Z,16.40
2022-11-04T12:23:02.675Z,16.50
2022-11-04T12:27:35.316Z,16.30
2022-11-04T12:31:59.063Z,16.40
2022-11-04T12:36:13.047Z,16.60
2022-11-04T12:40:26.767Z,16.50
2022-11-04T12:44:34.524Z,16.60
2022-11-04T12:49:06.017Z,16.20
2022-11-04T12:53:07.780Z,16.30
2022-11-04T12:57:16.016Z,16.30
2022-11-04T13:01:26.879Z,16.30
2022-11-04T13:05:50.447Z,16.40
2022-11-04T13:09:55.467Z,16.10
2022-11-04T13:14:06.637Z,16.40
2022-11-04T13:18:12.933Z,16.50
2022-11-04T13:22:23.827Z,16.30
2022-11-04T13:26:25.231Z,16.30
2022-11-04T13:30:49.988Z,16.40
2022-11-04T13:35:10.422Z,16.40
2022-11-04T13:39:33.915Z,16.20
2022-11-04T13:43:39.449Z,16.10
2022-11-04T13:47:53.731Z,16.00
2022-11-04T13:52:13.108Z,16.10
2022-11-04T13:56:33.854Z,16.20
2022-11-04T14:00:36.868Z,16.10
2022-11-04T14:04:39.716Z,16.00
2022-11-04T14:08:57.080Z,16.10
2022-11-04T14:13:02.133Z,16.10
2022-11-04T14:17:05.739Z,16.10
2022-11-04T14:21:15.484Z,15.60
2022-11-04T14:25:35.648Z,15.70
2022-11-04T14:29:36.932Z,16.00
2022-11-04T14:33:42.112Z,15.90
2022-11-04T14:37:43.925Z,16.10
2022-11-04T14:42:02.355Z,16.10
2022-11-04T14:46:03.768Z,16.10
2022-11-04T14:50:07.903Z,16.20
2022-11-04T14:54:19.482Z,16.20
2022-11-04T14:58:23.976Z,16.00
2022-11-04T15:02:29.008Z,15.80
2022-11-04T15:06:40.645Z,15.80
2022-11-04T15:10:38.041Z,15.80
2022-11-04T15:14:45.505Z,15.80
2022-11-04T15:18:47.945Z,15.80
2022-11-04T15:22:49.797Z,15.60
2022-11-04T15:26:53.491Z,15.70
2022-11-04T15:31:04.727Z,15.80
2022-11-04T15:35:07.928Z,15.80
2022-11-04T15:39:24.746Z,15.60
2022-11-04T15:43:26.543Z,15.40
2022-11-04T15:47:28.604Z,15.40
2022-11-04T15:51:33.489Z,15.20
2022-11-04T15:55:37.242Z,15.20
2022-11-04T15:59:40.582Z,15.10
2022-11-04T16:03:56.869Z,15.00
2022-11-04T16:08:21.572Z,14.80
2022-11-04T16:12:36.596Z,14.80
2022-11-04T16:16:37.762Z,14.60
2022-11-04T16:20:42.635Z,14.40
2022-11-04T16:24:47.213Z,14.40
2022-11-04T16:28:52.085Z,14.30
2022-11-04T16:32:55.167Z,14.20
2022-11-04T16:36:58.266Z,14.10
2022-11-04T16:40:59.430Z,14.10
2022-11-04T16:45:03.135Z,14.10
2022-11-04T16:49:04.295Z,14.10
2022-11-04T16:53:05.376Z,14.10
2022-11-04T16:57:08.547Z,14.10
2022-11-04T17:01:14.008Z,14.10
2022-11-04T17:05:15.706Z,14.00
2022-11-04T17:09:19.922Z,13.90
2022-11-04T17:13:21.183Z,13.90
2022-11-04T17:17:22.382Z,13.80
2022-11-04T17:21:23.791Z,13.90
2022-11-04T17:25:27.516Z,13.90
2022-11-04T17:29:29.299Z,13.90
2022-11-04T17:33:30.489Z,13.90
2022-11-04T17:37:31.598Z,13.80
2022-11-04T17:41:51.509Z,13.60
2022-11-04T17:45:54.651Z,13.60
2022-11-04T17:49:55.836Z,13.50
2022-11-04T17:53:57.042Z,13.50
2022-11-04T17:57:58.346Z,13.60
2022-11-04T18:01:59.580Z,13.50
2022-11-04T18:06:01.113Z,13.50
2022-11-04T18:10:02.707Z,13.50
2022-11-04T18:14:04.206Z,13.50
2022-11-04T18:18:05.781Z,13.40
2022-11-04T18:22:07.044Z,13.40
2022-11-04T18:26:09.645Z,13.40
2022-11-04T18:30:12.167Z,13.30
2022-11-04T18:34:14.189Z,13.30
2022-11-04T18:38:15.271Z,13.30
2022-11-04T18:42:16.960Z,13.30
2022-11-04T18:46:18.281Z,13.20
2022-11-04T18:50:19.458Z,13.10
2022-11-04T18:54:20.548Z,13.20
2022-11-04T18:58:23.817Z,13.20
2022-11-04T19:02:25.067Z,13.20
2022-11-04T19:06:29.787Z,13.20
2022-11-04T19:10:31.094Z,13.30
2022-11-04T19:14:32.280Z,13.40
2022-11-04T19:18:33.810Z,13.30
2022-11-04T19:22:34.973Z,13.30
2022-11-04T19:26:36.154Z,13.30
2022-11-04T19:30:37.648Z,13.20
2022-11-04T19:34:39.142Z,13.30
2022-11-04T19:38:40.952Z,13.30
2022-11-04T19:43:02.356Z,13.30
2022-11-04T19:47:03.531Z,13.30
2022-11-04T19:51:06.996Z,13.20
2022-11-04T19:55:09.718Z,13.30
2022-11-04T19:59:11.846Z,13.30
2022-11-04T20:03:14.048Z,13.30
2022-11-04T20:07:16.443Z,13.30
2022-11-04T20:11:20.092Z,13.30
2022-11-04T20:15:21.528Z,13.30
2022-11-04T20:19:23.594Z,13.20
2022-11-04T20:23:24.858Z,13.20
2022-11-04T20:27:26.234Z,13.30
2022-11-04T20:31:30.377Z,13.20
2022-11-04T20:35:33.791Z,13.30
2022-11-04T20:39:35.385Z,13.20
2022-11-04T20:43:37.688Z,13.20
2022-11-04T20:47:38.872Z,13.10
2022-11-04T20:51:47.365Z,13.20
2022-11-04T20:55:50.633Z,13.10
2022-11-04T20:59:52.827Z,13.00
2022-11-04T21:03:55.533Z,13.00
2022-11-04T21:07:56.807Z,12.90
2022-11-04T21:11:57.915Z,12.90
2022-11-04T21:16:00.299Z,12.90
2022-11-04T21:20:03.404Z,12.80
2022-11-04T21:24:06.150Z,12.80
2022-11-04T21:28:07.991Z,12.80
2022-11-04T21:32:09.474Z,12.50
2022-11-04T21:36:12.498Z,12.60
2022-11-04T21:40:13.683Z,12.70
2022-11-04T21:44:14.788Z,12.70
2022-11-04T21:48:15.986Z,12.70
2022-11-04T21:52:17.276Z,12.70
2022-11-04T21:56:22.472Z,12.70
2022-11-04T22:00:23.572Z,12.70
2022-11-04T22:04:25.084Z,12.70
2022-11-04T22:08:26.610Z,12.70
2022-11-04T22:12:28.030Z,12.70
2022-11-04T22:16:31.639Z,12.70
2022-11-04T22:20:35.836Z,12.70
2022-11-04T22:24:37.139Z,12.80
2022-11-04T22:28:38.371Z,12.70
2022-11-04T22:32:39.638Z,12.70
2022-11-04T22:36:40.869Z,12.70
2022-11-04T22:40:42.041Z,12.70
2022-11-04T22:44:43.372Z,12.70
2022-11-04T22:48:44.656Z,12.60
2022-11-04T22:52:45.971Z,12.70
2022-11-04T22:56:47.123Z,12.70
2022-11-04T23:00:53.778Z,12.60
2022-11-04T23:04:54.932Z,12.60
2022-11-04T23:09:00.482Z,12.60
2022-11-04T23:13:19.456Z,12.70
2022-11-04T23:17:40.560Z,12.70
2022-11-04T23:22:00.281Z,12.70
2022-11-04T23:26:01.476Z,12.70
2022-11-04T23:30:20.566Z,12.70
2022-11-04T23:34:40.774Z,12.70
2022-11-04T23:38:45.222Z,12.70
2022-11-04T23:42:45.052Z,12.70
2022-11-04T23:47:04.510Z,12.80
2022-11-04T23:51:23.985Z,12.70
2022-11-04T23:55:43.477Z,12.70
